createdAt,value
2022-08-03T00:01:28.733Z,100.00
2022-08-03T00:03:55.687Z,100.00
2022-08-03T00:06:22.528Z,100.00
2022-08-03T00:08:49.270Z,100.00
2022-08-03T00:11:16.322Z,100.00
2022-08-03T00:13:43.069Z,100.00
2022-08-03T00:16:10.842Z,100.00
2022-08-03T00:18:38.092Z,100.00
2022-08-03T00:21:05.641Z,100.00
2022-08-03T00:23:51.377Z,100.00
2022-08-03T00:26:19.166Z,100.00
2022-08-03T00:28:45.873Z,100.00
2022-08-03T00:31:13.574Z,100.00
2022-08-03T00:33:58.199Z,100.00
2022-08-03T00:36:26.904Z,100.00
2022-08-03T00:38:53.547Z,100.00
2022-08-03T00:41:20.330Z,100.00
2022-08-03T00:43:47.030Z,100.00
2022-08-03T00:46:16.451Z,100.00
2022-08-03T00:48:47.485Z,100.00
2022-08-03T00:51:14.535Z,100.00
2022-08-03T00:53:41.346Z,100.00
2022-08-03T00:56:08.023Z,100.00
2022-08-03T00:58:34.843Z,100.00
2022-08-03T01:01:01.901Z,100.00
2022-08-03T01:03:28.631Z,100.00
2022-08-03T01:06:07.570Z,100.00
2022-08-03T01:08:57.292Z,100.00
2022-08-03T01:11:59.778Z,100.00
2022-08-03T01:14:32.566Z,100.00
2022-08-03T01:17:10.445Z,100.00
2022-08-03T01:19:43.768Z,100.00
2022-08-03T01:22:35.504Z,100.00
2022-08-03T01:25:40.188Z,100.00
2022-08-03T01:28:38.785Z,100.00
2022-08-03T01:31:10.109Z,100.00
2022-08-03T01:33:42.455Z,100.00
2022-08-03T01:36:19.659Z,100.00
2022-08-03T01:38:54.780Z,100.00
2022-08-03T01:41:25.127Z,100.00
2022-08-03T01:44:28.303Z,100.00
2022-08-03T01:46:47.561Z,100.00
2022-08-03T01:49:16.857Z,100.00
2022-08-03T01:52:02.751Z,100.00
2022-08-03T01:54:52.887Z,100.00
2022-08-03T01:57:21.179Z,100.00
2022-08-03T01:59:50.778Z,100.00
2022-08-03T02:02:32.679Z,100.00
2022-08-03T02:05:03.192Z,100.00
2022-08-03T02:07:32.100Z,100.00
2022-08-03T02:10:01.339Z,100.00
2022-08-03T02:12:30.023Z,100.00
2022-08-03T02:14:57.647Z,100.00
2022-08-03T02:17:39.335Z,100.00
2022-08-03T02:20:09.924Z,100.00
2022-08-03T02:22:40.031Z,100.00
2022-08-03T02:25:09.157Z,100.00
2022-08-03T02:27:43.178Z,100.00
2022-08-03T02:30:12.552Z,100.00
2022-08-03T02:32:41.240Z,100.00
2022-08-03T02:35:13.198Z,100.00
2022-08-03T02:37:49.833Z,100.00
2022-08-03T02:40:19.197Z,100.00
2022-08-03T02:42:48.613Z,100.00
2022-08-03T02:45:18.379Z,100.00
2022-08-03T02:47:54.241Z,100.00
2022-08-03T02:50:23.650Z,100.00
2022-08-03T02:52:52.287Z,100.00
2022-08-03T02:55:21.989Z,100.00
2022-08-03T02:57:50.328Z,100.00
2022-08-03T03:00:27.309Z,100.00
2022-08-03T03:02:58.608Z,100.00
2022-08-03T03:05:53.693Z,100.00
2022-08-03T03:08:17.634Z,100.00
2022-08-03T03:10:47.072Z,100.00
2022-08-03T03:13:19.373Z,100.00
2022-08-03T03:15:47.794Z,100.00
2022-08-03T03:18:21.725Z,100.00
2022-08-03T03:20:49.771Z,100.00
2022-08-03T03:23:17.558Z,100.00
2022-08-03T03:25:45.375Z,100.00
2022-08-03T03:28:12.450Z,100.00
2022-08-03T03:30:39.300Z,100.00
2022-08-03T03:33:06.038Z,100.00
2022-08-03T03:35:38.749Z,100.00
2022-08-03T03:38:07.287Z,100.00
2022-08-03T03:40:36.013Z,100.00
2022-08-03T03:43:07.027Z,100.00
2022-08-03T03:45:35.431Z,100.00
2022-08-03T03:48:04.618Z,100.00
2022-08-03T03:50:33.234Z,100.00
2022-08-03T03:52:59.867Z,100.00
2022-08-03T03:55:26.626Z,100.00
2022-08-03T03:57:53.374Z,100.00
2022-08-03T04:00:20.258Z,100.00
2022-08-03T04:02:47.918Z,100.00
2022-08-03T04:05:15.524Z,100.00
2022-08-03T04:08:10.770Z,100.00
2022-08-03T04:10:42.443Z,100.00
2022-08-03T04:13:12.875Z,100.00
2022-08-03T04:15:41.466Z,100.00
2022-08-03T04:18:12.538Z,100.00
2022-08-03T04:20:42.753Z,100.00
2022-08-03T04:23:13.631Z,100.00
2022-08-03T04:25:43.966Z,100.00
2022-08-03T04:28:30.425Z,100.00
2022-08-03T04:31:01.494Z,100.00
2022-08-03T04:33:32.372Z,100.00
2022-08-03T04:36:03.417Z,100.00
2022-08-03T04:38:36.394Z,100.00
2022-08-03T04:41:03.793Z,100.00
2022-08-03T04:43:33.604Z,100.00
2022-08-03T04:46:01.961Z,100.00
2022-08-03T04:48:29.155Z,100.00
2022-08-03T04:50:55.982Z,100.00
2022-08-03T04:53:22.779Z,100.00
2022-08-03T04:55:50.213Z,100.00
2022-08-03T04:58:16.996Z,100.00
2022-08-03T05:00:43.914Z,100.00
2022-08-03T05:03:20.455Z,100.00
2022-08-03T05:06:01.575Z,100.00
2022-08-03T05:08:29.507Z,100.00
2022-08-03T05:10:59.045Z,100.00
2022-08-03T05:13:26.510Z,100.00
2022-08-03T05:15:53.357Z,100.00
2022-08-03T05:18:20.303Z,100.00
2022-08-03T05:20:47.031Z,100.00
2022-08-03T05:23:13.694Z,100.00
2022-08-03T05:25:40.328Z,100.00
2022-08-03T05:28:16.614Z,100.00
2022-08-03T05:30:43.346Z,100.00
2022-08-03T05:33:09.893Z,100.00
2022-08-03T05:36:00.709Z,100.00
2022-08-03T05:38:33.128Z,100.00
2022-08-03T05:41:23.495Z,100.00
2022-08-03T05:43:53.195Z,100.00
2022-08-03T05:46:19.918Z,100.00
2022-08-03T05:48:46.876Z,100.00
2022-08-03T05:51:16.591Z,100.00
2022-08-03T05:53:43.836Z,100.00
2022-08-03T05:56:13.819Z,100.00
2022-08-03T05:58:42.394Z,100.00
2022-08-03T06:01:09.229Z,100.00
2022-08-03T06:03:35.879Z,100.00
2022-08-03T06:06:02.418Z,100.00
2022-08-03T06:08:28.931Z,100.00
2022-08-03T06:10:55.685Z,100.00
2022-08-03T06:13:22.431Z,100.00
2022-08-03T06:15:49.187Z,100.00
2022-08-03T06:18:15.947Z,100.00
2022-08-03T06:20:42.520Z,100.00
2022-08-03T06:23:16.280Z,100.00
2022-08-03T06:25:44.891Z,100.00
2022-08-03T06:28:23.545Z,100.00
2022-08-03T06:30:58.843Z,100.00
2022-08-03T06:33:25.490Z,100.00
2022-08-03T06:36:12.214Z,100.00
2022-08-03T06:38:39.134Z,100.00
2022-08-03T06:41:05.984Z,100.00
2022-08-03T06:43:35.769Z,100.00
2022-08-03T06:46:02.542Z,100.00
2022-08-03T06:48:30.110Z,100.00
2022-08-03T06:50:56.757Z,100.00
2022-08-03T06:53:23.497Z,100.00
2022-08-03T06:55:54.400Z,99.93
2022-08-03T06:58:22.558Z,99.18
2022-08-03T07:00:49.705Z,99.97
2022-08-03T07:03:16.831Z,98.60
2022-08-03T07:05:44.131Z,68.64
2022-08-03T07:08:10.933Z,67.57
2022-08-03T07:10:37.616Z,67.69
2022-08-03T07:13:05.146Z,68.02
2022-08-03T07:15:38.264Z,66.48
2022-08-03T07:18:29.128Z,67.28
2022-08-03T07:20:57.969Z,67.74
2022-08-03T07:23:24.958Z,67.27
2022-08-03T07:25:51.874Z,65.66
2022-08-03T07:28:18.621Z,66.40
2022-08-03T07:30:45.336Z,65.77
2022-08-03T07:33:12.083Z,65.28
2022-08-03T07:35:39.235Z,65.96
2022-08-03T07:38:05.876Z,66.05
2022-08-03T07:40:32.811Z,66.15
2022-08-03T07:43:00.319Z,64.79
2022-08-03T07:45:27.109Z,63.40
2022-08-03T07:47:54.328Z,64.78
2022-08-03T07:50:22.531Z,64.43
2022-08-03T07:52:50.312Z,63.31
2022-08-03T07:55:22.686Z,63.86
2022-08-03T07:58:10.262Z,63.31
2022-08-03T08:00:37.105Z,62.59
2022-08-03T08:03:05.066Z,61.80
2022-08-03T08:05:32.315Z,61.26
2022-08-03T08:07:59.230Z,61.09
2022-08-03T08:10:25.807Z,60.42
2022-08-03T08:12:52.928Z,60.31
2022-08-03T08:15:19.885Z,59.05
2022-08-03T08:17:52.613Z,58.22
2022-08-03T08:20:30.520Z,58.44
2022-08-03T08:23:01.330Z,59.00
2022-08-03T08:25:29.543Z,58.21
2022-08-03T08:28:29.586Z,58.59
2022-08-03T08:30:42.945Z,57.38
2022-08-03T08:33:15.707Z,54.39
2022-08-03T08:35:51.258Z,55.18
2022-08-03T08:38:17.907Z,54.55
2022-08-03T08:40:44.520Z,55.41
2022-08-03T08:43:11.268Z,54.64
2022-08-03T08:45:38.012Z,54.74
2022-08-03T08:48:08.354Z,54.57
2022-08-03T08:50:37.939Z,54.13
2022-08-03T08:53:18.383Z,52.94
2022-08-03T08:55:58.255Z,53.51
2022-08-03T08:58:30.431Z,53.31
2022-08-03T09:00:57.368Z,52.79
2022-08-03T09:03:29.593Z,52.19
2022-08-03T09:06:00.005Z,52.46
2022-08-03T09:08:26.894Z,50.70
2022-08-03T09:10:53.588Z,51.13
2022-08-03T09:13:20.232Z,50.64
2022-08-03T09:16:00.998Z,50.60
2022-08-03T09:18:32.735Z,50.94
2022-08-03T09:21:35.121Z,51.05
2022-08-03T09:24:05.350Z,50.57
2022-08-03T09:26:37.961Z,50.63
2022-08-03T09:29:14.593Z,50.17
2022-08-03T09:31:44.629Z,49.89
2022-08-03T09:34:13.897Z,48.16
2022-08-03T09:36:46.633Z,48.84
2022-08-03T09:39:17.790Z,48.70
2022-08-03T09:41:47.574Z,48.88
2022-08-03T09:44:24.488Z,48.26
2022-08-03T09:46:55.042Z,48.10
2022-08-03T09:49:22.270Z,47.81
2022-08-03T09:52:30.070Z,46.71
2022-08-03T09:54:42.320Z,47.51
2022-08-03T09:57:20.013Z,47.11
2022-08-03T09:59:46.858Z,47.85
2022-08-03T10:02:27.721Z,48.39
2022-08-03T10:04:54.696Z,47.72
2022-08-03T10:07:23.250Z,47.92
2022-08-03T10:10:28.863Z,47.98
2022-08-03T10:12:46.437Z,48.36
2022-08-03T10:16:21.429Z,48.47
2022-08-03T10:17:59.552Z,48.76
2022-08-03T10:20:26.520Z,48.62
2022-08-03T10:22:53.617Z,49.10
2022-08-03T10:25:20.532Z,48.76
2022-08-03T10:27:51.067Z,48.89
2022-08-03T10:30:18.043Z,48.53
2022-08-03T10:32:51.658Z,47.80
2022-08-03T10:35:21.868Z,47.80
2022-08-03T10:37:56.952Z,46.96
2022-08-03T10:40:47.681Z,46.93
2022-08-03T10:43:21.995Z,46.19
2022-08-03T10:45:49.182Z,46.12
2022-08-03T10:48:17.605Z,46.63
2022-08-03T10:50:44.818Z,46.91
2022-08-03T10:53:11.569Z,46.33
2022-08-03T10:55:43.812Z,46.84
2022-08-03T10:58:12.534Z,46.26
2022-08-03T11:00:50.051Z,46.36
2022-08-03T11:03:17.763Z,46.01
2022-08-03T11:05:48.738Z,46.55
2022-08-03T11:08:26.343Z,46.49
2022-08-03T11:10:59.063Z,46.21
2022-08-03T11:13:27.738Z,45.84
2022-08-03T11:15:59.981Z,45.44
2022-08-03T11:18:29.905Z,45.37
2022-08-03T11:20:59.289Z,44.20
2022-08-03T11:24:05.126Z,44.57
2022-08-03T11:26:34.091Z,43.80
2022-08-03T11:29:31.838Z,43.41
2022-08-03T11:31:58.783Z,42.46
2022-08-03T11:34:26.439Z,43.35
2022-08-03T11:37:29.972Z,43.37
2022-08-03T11:40:00.083Z,43.26
2022-08-03T11:42:26.618Z,43.14
2022-08-03T11:44:56.020Z,42.98
2022-08-03T11:47:24.220Z,42.42
2022-08-03T11:49:54.070Z,41.90
2022-08-03T11:52:26.750Z,41.75
2022-08-03T11:54:57.189Z,41.71
2022-08-03T11:59:10.956Z,42.50
2022-08-03T12:00:30.788Z,42.97
2022-08-03T12:03:07.867Z,43.70
2022-08-03T12:05:35.251Z,44.13
2022-08-03T12:08:03.952Z,44.28
2022-08-03T12:10:33.838Z,44.59
2022-08-03T12:13:02.740Z,44.67
2022-08-03T12:15:32.013Z,44.41
2022-08-03T12:17:58.683Z,44.41
2022-08-03T12:20:34.689Z,44.28
2022-08-03T12:23:04.164Z,43.83
2022-08-03T12:25:39.872Z,43.99
2022-08-03T12:28:36.930Z,44.02
2022-08-03T12:31:08.584Z,43.62
2022-08-03T12:33:56.883Z,43.27
2022-08-03T12:36:23.763Z,42.38
2022-08-03T12:39:02.967Z,41.70
2022-08-03T12:41:35.086Z,41.95
2022-08-03T12:44:03.652Z,42.17
2022-08-03T12:46:47.002Z,41.96
2022-08-03T12:49:16.418Z,40.78
2022-08-03T12:51:43.039Z,40.67
2022-08-03T12:54:16.722Z,41.02
2022-08-03T12:57:03.552Z,40.65
2022-08-03T12:59:35.395Z,40.93
2022-08-03T13:02:16.797Z,39.92
2022-08-03T13:04:45.871Z,40.55
2022-08-03T13:07:17.966Z,40.56
2022-08-03T13:09:52.191Z,40.67
2022-08-03T13:12:21.111Z,40.98
2022-08-03T13:14:50.523Z,41.26
2022-08-03T13:17:17.951Z,41.25
2022-08-03T13:19:46.202Z,41.22
2022-08-03T13:22:14.912Z,41.44
2022-08-03T13:24:42.800Z,41.34
2022-08-03T13:28:01.936Z,41.26
2022-08-03T13:29:56.668Z,41.22
2022-08-03T13:32:24.023Z,40.80
2022-08-03T13:34:50.668Z,39.96
2022-08-03T13:37:17.512Z,39.19
2022-08-03T13:39:57.645Z,40.94
2022-08-03T13:42:30.567Z,40.62
2022-08-03T13:44:57.237Z,39.89
2022-08-03T13:47:24.195Z,39.34
2022-08-03T13:50:00.385Z,38.91
2022-08-03T13:52:30.934Z,39.54
2022-08-03T13:54:57.606Z,38.82
2022-08-03T13:58:03.233Z,37.83
2022-08-03T14:00:11.781Z,37.09
2022-08-03T14:02:38.604Z,37.61
2022-08-03T14:05:05.762Z,37.48
2022-08-03T14:07:32.563Z,36.66
2022-08-03T14:09:59.816Z,36.71
2022-08-03T14:12:26.470Z,35.25
2022-08-03T14:14:53.065Z,33.83
2022-08-03T14:17:20.538Z,35.72
2022-08-03T14:19:53.503Z,34.74
2022-08-03T14:22:21.568Z,35.01
2022-08-03T14:24:48.476Z,34.94
2022-08-03T14:27:16.558Z,34.56
2022-08-03T14:29:43.588Z,33.98
2022-08-03T14:32:13.172Z,32.81
2022-08-03T14:34:40.565Z,33.58
2022-08-03T14:37:07.410Z,32.16
2022-08-03T14:42:20.772Z,31.90
2022-08-03T14:44:47.992Z,32.65
2022-08-03T14:47:14.735Z,32.24
2022-08-03T14:50:36.207Z,32.08
2022-08-03T14:52:28.413Z,31.80
2022-08-03T14:54:55.021Z,31.25
2022-08-03T14:57:21.884Z,31.11
2022-08-03T14:59:55.840Z,30.40
2022-08-03T15:02:25.213Z,31.81
2022-08-03T15:04:52.631Z,32.54
2022-08-03T15:07:19.458Z,33.28
2022-08-03T15:09:46.929Z,33.83
2022-08-03T15:12:13.563Z,34.22
2022-08-03T15:14:40.351Z,34.24
2022-08-03T15:17:07.871Z,34.81
2022-08-03T15:20:02.841Z,35.29
2022-08-03T15:22:24.879Z,36.10
2022-08-03T15:24:52.530Z,36.27
2022-08-03T15:27:19.355Z,36.22
2022-08-03T15:30:09.659Z,36.49
2022-08-03T15:32:36.126Z,36.89
2022-08-03T15:35:02.773Z,36.76
2022-08-03T15:37:29.407Z,37.11
2022-08-03T15:40:00.119Z,37.67
2022-08-03T15:42:32.601Z,37.73
2022-08-03T15:44:59.880Z,37.63
2022-08-03T15:47:27.127Z,37.50
2022-08-03T15:49:53.785Z,37.43
2022-08-03T15:52:20.426Z,36.81
2022-08-03T15:54:47.030Z,35.81
2022-08-03T15:57:13.605Z,34.03
2022-08-03T15:59:40.222Z,33.72
2022-08-03T16:02:06.749Z,33.58
2022-08-03T16:04:33.509Z,33.50
2022-08-03T16:07:00.152Z,33.47
2022-08-03T16:09:42.023Z,33.65
2022-08-03T16:12:11.880Z,33.28
2022-08-03T16:14:51.970Z,31.99
2022-08-03T16:17:20.844Z,32.42
2022-08-03T16:19:47.702Z,31.87
2022-08-03T16:22:14.667Z,31.77
2022-08-03T16:24:41.478Z,31.15
2022-08-03T16:27:17.383Z,31.02
2022-08-03T16:29:55.675Z,31.05
2022-08-03T16:32:22.288Z,31.18
2022-08-03T16:34:49.039Z,31.22
2022-08-03T16:37:37.697Z,31.49
2022-08-03T16:40:03.935Z,31.24
2022-08-03T16:42:30.705Z,31.34
2022-08-03T16:44:57.316Z,32.18
2022-08-03T16:47:24.034Z,32.49
2022-08-03T16:49:55.252Z,32.97
2022-08-03T16:52:24.391Z,33.15
2022-08-03T16:54:53.276Z,33.91
2022-08-03T16:57:55.787Z,34.64
2022-08-03T17:00:10.219Z,34.86
2022-08-03T17:02:37.897Z,35.30
2022-08-03T17:05:05.432Z,35.68
2022-08-03T17:07:32.221Z,36.19
2022-08-03T17:10:01.206Z,36.47
2022-08-03T17:12:28.195Z,36.76
2022-08-03T17:14:56.834Z,37.69
2022-08-03T17:17:30.338Z,37.49
2022-08-03T17:20:15.863Z,37.31
2022-08-03T17:22:55.524Z,37.30
2022-08-03T17:26:02.612Z,38.08
2022-08-03T17:28:49.248Z,38.64
2022-08-03T17:30:56.844Z,38.91
2022-08-03T17:33:35.409Z,39.34
2022-08-03T17:36:02.502Z,39.76
2022-08-03T17:38:38.077Z,39.93
2022-08-03T17:41:10.787Z,40.30
2022-08-03T17:44:13.226Z,40.95
2022-08-03T17:46:27.449Z,41.35
2022-08-03T17:48:54.102Z,41.75
2022-08-03T17:51:30.134Z,42.37
2022-08-03T17:54:18.649Z,42.51
2022-08-03T17:56:46.537Z,43.13
2022-08-03T17:59:52.181Z,43.77
2022-08-03T18:02:59.175Z,44.48
2022-08-03T18:06:11.533Z,44.92
2022-08-03T18:08:28.769Z,45.25
2022-08-03T18:11:03.444Z,45.28
2022-08-03T18:13:44.680Z,45.54
2022-08-03T18:16:43.161Z,46.10
2022-08-03T18:19:13.661Z,46.43
2022-08-03T18:22:03.107Z,47.35
2022-08-03T18:24:30.352Z,47.74
2022-08-03T18:26:59.067Z,47.62
2022-08-03T18:29:29.918Z,47.87
2022-08-03T18:32:03.901Z,48.29
2022-08-03T18:34:34.367Z,48.81
2022-08-03T18:37:07.379Z,48.65
2022-08-03T18:39:39.091Z,49.01
2022-08-03T18:42:19.678Z,49.11
2022-08-03T18:44:54.148Z,49.52
2022-08-03T18:47:50.916Z,50.14
2022-08-03T18:50:39.071Z,50.52
2022-08-03T18:53:15.729Z,51.74
2022-08-03T18:56:01.555Z,52.04
2022-08-03T18:58:41.226Z,52.59
2022-08-03T19:01:15.190Z,52.96
2022-08-03T19:04:05.586Z,53.67
2022-08-03T19:06:38.711Z,54.07
2022-08-03T19:09:07.448Z,54.24
2022-08-03T19:12:14.535Z,54.96
2022-08-03T19:15:01.557Z,55.27
2022-08-03T19:17:33.492Z,55.54
2022-08-03T19:20:05.286Z,55.79
2022-08-03T19:22:33.461Z,57.01
2022-08-03T19:25:01.619Z,57.10
2022-08-03T19:27:30.956Z,57.43
2022-08-03T19:30:03.972Z,58.52
2022-08-03T19:32:33.435Z,58.18
2022-08-03T19:35:03.465Z,58.01
2022-08-03T19:37:39.673Z,58.14
2022-08-03T19:40:10.783Z,58.31
2022-08-03T19:42:44.732Z,58.57
2022-08-03T19:45:15.544Z,58.89
2022-08-03T19:47:52.828Z,59.57
2022-08-03T19:50:20.695Z,60.27
2022-08-03T19:52:49.476Z,61.32
2022-08-03T19:55:17.533Z,60.96
2022-08-03T19:57:48.099Z,61.67
2022-08-03T20:00:17.462Z,61.17
2022-08-03T20:02:45.541Z,61.56
2022-08-03T20:05:15.253Z,61.98
2022-08-03T20:07:47.764Z,62.00
2022-08-03T20:10:15.527Z,62.30
2022-08-03T20:12:43.689Z,62.28
2022-08-03T20:15:10.379Z,62.48
2022-08-03T20:17:56.125Z,63.60
2022-08-03T20:20:31.700Z,63.77
2022-08-03T20:23:00.831Z,63.61
2022-08-03T20:25:38.612Z,64.06
2022-08-03T20:28:15.143Z,64.11
2022-08-03T20:30:44.302Z,65.06
2022-08-03T20:33:18.310Z,65.21
2022-08-03T20:36:03.060Z,65.10
2022-08-03T20:38:29.672Z,65.18
2022-08-03T20:40:56.856Z,65.37
2022-08-03T20:43:26.057Z,65.48
2022-08-03T20:48:43.213Z,66.23
2022-08-03T20:51:20.142Z,66.26
2022-08-03T20:54:22.492Z,67.26
2022-08-03T20:56:51.778Z,69.04
2022-08-03T20:59:19.538Z,70.48
2022-08-03T21:01:46.831Z,74.15
2022-08-03T21:04:13.952Z,71.22
2022-08-03T21:06:55.333Z,70.51
2022-08-03T21:12:17.818Z,71.49
2022-08-03T21:13:08.101Z,70.37
2022-08-03T21:13:12.319Z,65.54
2022-08-03T21:15:06.897Z,70.73
2022-08-03T21:17:40.754Z,71.04
2022-08-03T21:20:10.795Z,71.69
2022-08-03T21:22:39.285Z,72.03
2022-08-03T21:25:08.150Z,72.92
2022-08-03T21:27:36.675Z,73.19
2022-08-03T21:30:08.865Z,73.83
2022-08-03T21:32:36.330Z,74.80
2022-08-03T21:35:03.091Z,75.52
2022-08-03T21:37:29.609Z,75.64
2022-08-03T21:39:56.668Z,75.17
2022-08-03T21:42:23.721Z,77.17
2022-08-03T21:44:52.178Z,78.04
2022-08-03T21:47:22.198Z,80.08
2022-08-03T21:50:06.658Z,81.76
2022-08-03T21:52:47.342Z,84.34
2022-08-03T21:55:20.332Z,86.24
2022-08-03T21:57:51.889Z,85.92
2022-08-03T22:00:22.132Z,83.30
2022-08-03T22:02:54.475Z,83.16
2022-08-03T22:05:42.441Z,81.97
2022-08-03T22:08:10.091Z,82.24
2022-08-03T22:10:37.150Z,82.39
2022-08-03T22:13:04.130Z,84.24
2022-08-03T22:15:32.383Z,83.56
2022-08-03T22:18:00.048Z,83.22
2022-08-03T22:20:26.726Z,83.70
2022-08-03T22:22:56.788Z,84.14
2022-08-03T22:25:30.522Z,84.22
2022-08-03T22:28:00.090Z,85.98
2022-08-03T22:30:26.959Z,86.47
2022-08-03T22:32:54.980Z,86.28
2022-08-03T22:35:25.392Z,92.76
2022-08-03T22:37:54.573Z,98.04
2022-08-03T22:40:22.048Z,95.24
2022-08-03T22:42:49.313Z,95.48
2022-08-03T22:46:05.897Z,98.47
2022-08-03T22:48:07.484Z,99.91
2022-08-03T22:50:34.852Z,98.79
2022-08-03T22:53:01.890Z,99.48
2022-08-03T22:55:29.144Z,99.82
2022-08-03T22:57:56.458Z,96.84
2022-08-03T23:00:23.668Z,94.84
2022-08-03T23:02:52.008Z,94.11
2022-08-03T23:06:00.649Z,94.03
2022-08-03T23:08:20.560Z,95.38
2022-08-03T23:10:48.633Z,94.94
2022-08-03T23:13:17.922Z,94.95
2022-08-03T23:15:53.711Z,94.60
2022-08-03T23:18:21.576Z,95.90
2022-08-03T23:20:57.843Z,97.50
2022-08-03T23:23:24.924Z,97.68
2022-08-03T23:25:51.872Z,97.51
2022-08-03T23:28:18.822Z,97.42
2022-08-03T23:30:46.815Z,98.00
2022-08-03T23:33:15.004Z,98.01
2022-08-03T23:36:20.106Z,99.78
2022-08-03T23:38:30.141Z,99.88
2022-08-03T23:40:58.570Z,99.40
2022-08-03T23:43:44.397Z,99.53
2022-08-03T23:46:18.196Z,100.00
2022-08-03T23:48:44.986Z,99.47
2022-08-03T23:51:29.462Z,99.59
2022-08-03T23:54:06.375Z,100.00
2022-08-03T23:57:00.513Z,100.00
2022-08-03T23:59:46.609Z,100.00
